To NAV CANADA Home Page Login to a new session Search on AWWS site Feedback and Comments Disclaimer Vers la page française équivalente Tips FAQ What's new on the site To the Forecasts and Observations / NOTAM section To "File a Flight Plan" website Publications and other links Update of the User's profile FIC Telephone Numbers My Weather Data Folder Route Weather Data Regional Weather Data Local Weather Data To the Forecasts and Observations / NOTAM section
Request Generated 03/23/2017 at 00:15:21 UTC . Weather information available at that time is displayed.

METAR/TAF

SASKATOON/JOHN G. DIEFENBAKER INTL/SK    

METAR CYXE 230000Z 24019G25KT 15SM FEW040 FEW120 09/03 A2957 RMK
SC1AC1 SLP037 DENSITY ALT 1700FT=
METAR CYXE 222300Z 17018G26KT 15SM FEW040 SCT120 09/01 A2956 RMK
SC2AC1 SLP033 DENSITY ALT 1700FT=
METAR CYXE 222200Z 14016G23KT 15SM FEW028 FEW120 07/00 A2958 RMK
SC1AC1 SLP043=

TAF AMD CYXE 230010Z 2300/2324 24015G25KT P6SM FEW040 SCT120
BECMG 2304/2306 29012G22KT
FM230600 30012G22KT P6SM SCT012 BKN030 TEMPO 2306/2315 4SM BR
SCT008 BKN012 OVC030
BECMG 2307/2309 29008KT
FM231500 28006KT P6SM SKC
FM232100 35006KT P6SM SKC
BECMG 2322/2324 06006KT
RMK NXT FCST BY 230600Z=
Your time UTC time
Weather data provided by Environment Canada and NAV CANADA